Time;durP1;ratioP1;P1;durP2;ratioP2;P2;SDS_P1;SDS_P2;PMS_P1;PMS_P2;Temp;Humidity;BMP_temperature;BMP_pressure;BME280_temperature;BME280_humidity;BME280_pressure;Samples;Min_cycle;Max_cycle;Signal;HPM_P1;HPM_P2
2021/10/01 00:12:37;;;;;;;6.07;1.50;;;;;;;12.19;88.72;101878.13;5002766;28;20072;-64
2021/10/01 00:15:06;;;;;;;5.80;1.48;;;;;;;12.13;89.03;101862.88;4990686;28;20141;-64
2021/10/01 00:17:32;;;;;;;5.75;1.35;;;;;;;12.11;88.94;101860.38;4988058;28;20085;-64
2021/10/01 00:19:59;;;;;;;13.55;2.03;;;;;;;12.11;88.21;101862.19;4983353;28;20530;-63
2021/10/01 00:22:25;;;;;;;7.18;1.20;;;;;;;12.14;88.91;101861.94;4994322;28;20491;-64
2021/10/01 00:25:01;;;;;;;3.63;1.27;;;;;;;12.14;88.89;101861.94;4993899;28;20785;-63
2021/10/01 00:28:11;;;;;;;4.85;1.23;;;;;;;12.17;89.18;101859.00;4992927;28;20153;-64
2021/10/01 00:30:38;;;;;;;10.07;1.70;;;;;;;12.17;88.93;101848.50;4987455;28;20562;-64
2021/10/01 00:33:05;;;;;;;13.98;1.88;;;;;;;12.18;87.89;101851.00;4990197;28;20065;-63
2021/10/01 00:35:31;;;;;;;6.05;1.73;;;;;;;12.16;88.65;101844.22;4990030;28;20054;-62
2021/10/01 00:37:59;;;;;;;6.70;1.92;;;;;;;12.18;88.28;101845.75;4992421;28;20099;-63
2021/10/01 00:40:27;;;;;;;6.15;1.63;;;;;;;12.21;88.03;101840.22;4983132;28;20166;-62
2021/10/01 00:42:53;;;;;;;6.38;1.50;;;;;;;12.19;88.60;101836.03;4981688;28;20454;-63
2021/10/01 00:45:20;;;;;;;8.68;1.50;;;;;;;12.22;88.13;101841.88;4990172;28;20133;-63
2021/10/01 00:47:46;;;;;;;8.63;1.65;;;;;;;12.23;88.06;101833.03;4996632;28;20058;-63
2021/10/01 00:50:13;;;;;;;5.88;1.55;;;;;;;12.22;87.45;101835.78;4991711;28;20133;-63
2021/10/01 00:52:40;;;;;;;4.75;2.30;;;;;;;12.23;87.58;101834.81;4986904;28;20108;-62
2021/10/01 00:55:07;;;;;;;7.00;1.30;;;;;;;12.22;86.97;101818.19;4989798;28;20082;-63
2021/10/01 00:57:34;;;;;;;4.80;1.40;;;;;;;12.29;87.52;101817.66;5007049;28;20046;-63
2021/10/01 01:00:00;;;;;;;5.75;1.30;;;;;;;12.25;87.17;101825.00;4982671;28;20590;-63
2021/10/01 01:02:27;;;;;;;10.88;1.73;;;;;;;12.24;86.57;101820.72;4993347;28;20081;-63
2021/10/01 01:04:54;;;;;;;7.53;1.63;;;;;;;12.23;87.17;101822.50;4977686;28;20463;-64
2021/10/01 01:07:42;;;;;;;5.05;1.20;;;;;;;12.25;87.40;101804.81;4982348;28;20493;-63
2021/10/01 01:10:16;;;;;;;9.23;1.55;;;;;;;12.23;87.82;101808.50;4983066;28;20767;-64
2021/10/01 01:12:52;;;;;;;10.70;1.58;;;;;;;12.19;87.92;101804.47;4985321;28;20941;-64
2021/10/01 01:15:43;;;;;;;8.30;1.70;;;;;;;12.16;87.21;101800.31;4986086;28;20147;-64
2021/10/01 01:18:23;;;;;;;9.05;1.88;;;;;;;12.16;88.22;101794.25;4985536;28;20053;-62
2021/10/01 01:20:55;;;;;;;7.50;1.40;;;;;;;12.21;87.62;101795.50;4981069;28;20141;-62
2021/10/01 01:23:54;;;;;;;8.70;1.60;;;;;;;12.14;87.38;101796.19;4981999;28;20127;-63
2021/10/01 01:27:07;;;;;;;10.63;1.63;;;;;;;12.18;88.57;101798.41;4995486;28;20140;-63
2021/10/01 01:29:38;;;;;;;9.48;1.20;;;;;;;12.14;88.14;101801.44;4983234;28;20137;-63
2021/10/01 01:32:13;;;;;;;5.88;1.40;;;;;;;12.13;88.50;101805.00;4981570;28;20161;-64
2021/10/01 01:34:48;;;;;;;4.55;1.23;;;;;;;12.12;88.25;101804.19;4976355;28;20581;-63
2021/10/01 01:37:20;;;;;;;3.38;1.38;;;;;;;12.14;89.49;101785.66;4988125;28;20064;-64
2021/10/01 01:39:48;;;;;;;4.22;1.30;;;;;;;12.06;88.30;101783.69;4982063;28;20054;-64
2021/10/01 01:42:16;;;;;;;12.63;3.00;;;;;;;12.05;88.59;101784.63;4991495;28;20074;-63
2021/10/01 01:44:44;;;;;;;5.82;1.80;;;;;;;12.06;89.15;101781.88;4980673;28;20138;-63
2021/10/01 01:47:12;;;;;;;8.88;1.55;;;;;;;12.08;89.28;101784.38;4980032;28;20149;-64
2021/10/01 01:49:41;;;;;;;4.07;1.30;;;;;;;12.10;88.92;101774.56;4983506;28;20140;-64
2021/10/01 01:52:08;;;;;;;;;;;;;;;12.10;89.54;101790.34;4984285;28;20145;-63
2021/10/01 01:54:34;;;;;;;7.18;1.30;;;;;;;12.13;89.06;101781.34;4989731;28;20024;-64
2021/10/01 01:57:02;;;;;;;6.55;1.20;;;;;;;12.18;88.62;101771.28;4995853;28;20156;-64
2021/10/01 01:59:30;;;;;;;4.00;1.37;;;;;;;12.14;89.18;101777.75;4988430;28;20499;-62
2021/10/01 02:01:58;;;;;;;6.68;1.48;;;;;;;12.13;88.52;101786.59;4972722;28;20089;-63
2021/10/01 02:04:26;;;;;;;;;;;;;;;12.15;89.73;101782.03;4988968;28;20160;-63
2021/10/01 02:06:54;;;;;;;7.00;1.73;;;;;;;12.18;89.31;101766.84;4985946;28;20044;-63
2021/10/01 02:09:22;;;;;;;4.75;1.52;;;;;;;12.18;89.51;101768.63;4982147;28;20169;-63
2021/10/01 02:11:49;;;;;;;8.00;1.50;;;;;;;12.14;89.45;101760.19;4994958;28;20136;-63
2021/10/01 02:14:23;;;;;;;4.22;1.08;;;;;;;12.17;89.26;101761.69;4980227;28;20288;-63
2021/10/01 02:16:51;;;;;;;2.55;1.10;;;;;;;12.16;89.55;101749.53;4980657;28;20085;-63
2021/10/01 02:19:19;;;;;;;7.25;1.40;;;;;;;12.20;88.60;101749.13;4978245;28;20058;-64
2021/10/01 02:21:48;;;;;;;5.57;1.40;;;;;;;12.17;88.84;101752.03;4983612;28;20074;-63
2021/10/01 02:24:16;;;;;;;10.32;1.35;;;;;;;12.22;89.13;101751.63;4987320;28;20137;-64
2021/10/01 02:26:55;;;;;;;8.98;1.40;;;;;;;12.19;88.80;101750.09;4979687;28;20056;-63
2021/10/01 02:29:27;;;;;;;11.57;1.65;;;;;;;12.18;88.68;101748.41;4980477;28;20674;-63
2021/10/01 02:32:05;;;;;;;12.18;1.67;;;;;;;12.19;88.44;101742.22;4972779;28;20054;-63
2021/10/01 02:34:41;;;;;;;11.93;2.65;;;;;;;12.17;88.47;101738.88;4987191;28;20085;-64
2021/10/01 02:37:07;;;;;;;6.32;1.30;;;;;;;12.24;88.04;101734.72;4979703;28;20063;-63
2021/10/01 02:39:40;;;;;;;4.43;1.55;;;;;;;12.20;88.42;101732.50;4991833;28;20105;-63
2021/10/01 02:42:08;;;;;;;5.53;1.52;;;;;;;12.19;88.72;101731.69;4975499;28;20054;-63
2021/10/01 02:44:36;;;;;;;5.88;1.27;;;;;;;12.24;88.39;101718.94;4979958;28;20138;-64
2021/10/01 02:47:04;;;;;;;9.13;1.50;;;;;;;12.26;87.67;101721.44;4983573;28;20201;-63
2021/10/01 02:49:31;;;;;;;4.47;1.40;;;;;;;12.25;87.29;101720.63;4983646;28;20065;-63
2021/10/01 02:52:07;;;;;;;4.50;1.35;;;;;;;12.28;86.98;101714.25;4990594;28;20145;-63
2021/10/01 02:54:40;;;;;;;10.38;1.52;;;;;;;12.31;86.97;101714.00;4977697;28;20046;-63
2021/10/01 02:57:18;;;;;;;5.07;1.35;;;;;;;12.38;87.28;101707.19;4984805;28;20641;-62
2021/10/01 02:59:46;;;;;;;8.82;1.50;;;;;;;12.37;86.64;101702.09;4981394;28;20145;-63
2021/10/01 03:02:15;;;;;;;6.60;1.70;;;;;;;12.34;87.21;101699.72;4985858;28;20134;-63
2021/10/01 03:04:48;;;;;;;7.70;1.85;;;;;;;12.37;87.03;101692.41;4980183;28;20064;-64
2021/10/01 03:07:16;;;;;;;7.75;1.30;;;;;;;12.39;87.39;101693.09;4990017;28;20096;-63
2021/10/01 03:09:47;;;;;;;7.03;1.60;;;;;;;12.47;87.43;101689.78;4988072;28;20573;-64
2021/10/01 03:12:15;;;;;;;13.68;1.50;;;;;;;12.41;86.90;101685.88;4978079;28;20553;-63
2021/10/01 03:14:41;;;;;;;4.90;1.40;;;;;;;12.39;85.84;101687.00;4987861;28;20085;-63
2021/10/01 03:17:08;;;;;;;4.45;1.38;;;;;;;12.40;86.22;101686.00;4979939;28;20054;-64
2021/10/01 03:19:36;;;;;;;3.20;1.23;;;;;;;12.41;86.05;101680.63;4987333;28;20141;-63
2021/10/01 03:22:04;;;;;;;7.05;1.63;;;;;;;12.39;85.85;101673.84;4980270;28;20050;-62
2021/10/01 03:24:31;;;;;;;4.18;1.13;;;;;;;12.41;86.43;101671.91;4991939;28;20082;-63
2021/10/01 03:26:58;;;;;;;7.65;1.23;;;;;;;12.39;86.70;101671.22;4987466;28;20150;-62
2021/10/01 03:29:24;;;;;;;7.75;1.30;;;;;;;12.38;85.59;101665.09;4994560;28;20140;-61
2021/10/01 03:31:52;;;;;;;8.02;1.27;;;;;;;12.41;85.75;101671.91;4986892;28;20100;-63
2021/10/01 03:34:18;;;;;;;5.45;1.60;;;;;;;12.40;85.81;101668.41;4980273;28;20854;-63
2021/10/01 03:36:45;;;;;;;4.43;1.52;;;;;;;12.39;86.37;101672.03;4994648;28;20049;-61
2021/10/01 03:39:12;;;;;;;11.63;1.63;;;;;;;12.37;85.50;101663.47;4981252;28;20086;-62
2021/10/01 03:41:38;;;;;;;5.57;1.23;;;;;;;12.36;86.21;101660.94;4993230;28;20156;-63
2021/10/01 03:44:05;;;;;;;4.43;1.13;;;;;;;12.37;86.35;101668.72;4979619;28;20849;-62
2021/10/01 03:46:31;;;;;;;9.50;1.73;;;;;;;12.37;85.44;101663.47;4987876;28;20483;-63
2021/10/01 03:48:58;;;;;;;8.27;1.73;;;;;;;12.41;84.87;101654.31;4983226;28;20058;-63
2021/10/01 03:51:24;;;;;;;8.18;1.60;;;;;;;12.44;84.83;101654.03;4978054;28;20073;-64
2021/10/01 03:53:53;;;;;;;6.47;1.52;;;;;;;12.47;84.19;101652.94;4986672;28;20567;-64
2021/10/01 03:56:19;;;;;;;7.93;1.88;;;;;;;12.49;85.32;101645.72;4978836;28;20211;-64
2021/10/01 03:58:47;;;;;;;8.70;1.58;;;;;;;12.49;84.71;101640.47;4992672;28;20129;-64
2021/10/01 04:01:14;;;;;;;5.45;1.27;;;;;;;12.45;84.12;101642.53;4987773;28;20141;-63
2021/10/01 04:03:41;;;;;;;5.85;1.77;;;;;;;12.43;84.13;101631.31;4987651;28;20132;-64
2021/10/01 04:06:08;;;;;;;10.15;1.45;;;;;;;12.41;84.96;101633.25;4990522;28;20132;-64
2021/10/01 04:08:35;;;;;;;9.55;1.60;;;;;;;12.32;84.75;101620.09;4982531;28;21158;-64
2021/10/01 04:11:01;;;;;;;5.10;1.48;;;;;;;12.29;85.30;101618.59;4988777;28;20155;-64
2021/10/01 04:13:28;;;;;;;7.00;1.85;;;;;;;12.23;85.14;101616.50;4979179;28;20178;-64
2021/10/01 04:15:54;;;;;;;8.75;1.90;;;;;;;12.26;86.40;101617.06;4983502;28;20149;-64
2021/10/01 04:18:22;;;;;;;6.32;1.48;;;;;;;12.26;85.68;101611.78;4991082;28;20133;-64
2021/10/01 04:20:49;;;;;;;6.65;1.70;;;;;;;12.26;85.58;101608.34;4994173;28;20137;-64
2021/10/01 04:23:16;;;;;;;5.30;1.70;;;;;;;12.16;86.15;101610.13;4991663;28;20461;-64
2021/10/01 04:25:42;;;;;;;10.25;1.42;;;;;;;12.19;85.83;101605.44;4980694;28;20141;-64
2021/10/01 04:28:09;;;;;;;6.13;1.52;;;;;;;12.15;86.14;101596.16;4987424;28;20054;-64
2021/10/01 04:30:42;;;;;;;8.40;2.70;;;;;;;12.11;86.13;101600.00;4987880;28;20181;-64
2021/10/01 04:33:40;;;;;;;6.50;1.20;;;;;;;12.12;86.40;101595.59;4989276;28;20165;-63
2021/10/01 04:36:35;;;;;;;5.17;1.27;;;;;;;12.11;86.63;101605.28;4982912;28;20053;-64
2021/10/01 04:39:03;;;;;;;8.98;1.67;;;;;;;12.06;86.02;101602.25;4986689;28;20422;-64
2021/10/01 04:41:30;;;;;;;7.30;1.75;;;;;;;12.06;86.41;101599.59;4985184;28;20050;-64
2021/10/01 04:43:56;;;;;;;6.68;1.58;;;;;;;12.05;86.11;101596.16;4982336;28;20053;-63
2021/10/01 04:46:23;;;;;;;4.57;1.50;;;;;;;12.01;86.50;101602.63;4988660;28;20046;-64
2021/10/01 04:48:50;;;;;;;6.18;1.40;;;;;;;12.00;86.79;101593.09;4982686;28;20515;-64
2021/10/01 04:51:17;;;;;;;2.88;1.30;;;;;;;11.97;86.47;101589.91;4986841;28;20062;-64
2021/10/01 04:53:44;;;;;;;7.13;1.65;;;;;;;11.95;86.80;101595.28;4983172;28;20065;-64
2021/10/01 04:56:10;;;;;;;5.78;1.75;;;;;;;11.94;86.46;101590.19;4986129;28;20525;-64
2021/10/01 04:58:37;;;;;;;4.22;1.52;;;;;;;11.95;87.17;101583.94;4978857;28;20061;-64
2021/10/01 05:01:03;;;;;;;8.43;1.77;;;;;;;11.92;86.17;101581.56;4987172;28;20062;-64
2021/10/01 05:03:30;;;;;;;9.27;1.50;;;;;;;11.91;86.50;101575.50;4985580;28;20073;-64
2021/10/01 05:06:00;;;;;;;9.73;1.60;;;;;;;11.87;85.92;101574.09;4984787;28;20054;-64
2021/10/01 05:08:26;;;;;;;4.38;1.30;;;;;;;11.87;86.43;101580.16;4985886;28;20042;-63
2021/10/01 05:10:52;;;;;;;4.43;1.60;;;;;;;11.84;85.69;101567.31;4979420;28;20050;-64
2021/10/01 05:13:19;;;;;;;5.88;1.40;;;;;;;11.84;85.55;101564.69;4997123;28;20053;-65
2021/10/01 05:15:46;;;;;;;5.07;1.45;;;;;;;11.84;85.77;101561.22;4989285;28;20522;-63
2021/10/01 05:18:14;;;;;;;6.30;1.60;;;;;;;11.84;86.33;101569.13;4989244;28;20475;-64
2021/10/01 05:20:41;;;;;;;9.48;1.92;;;;;;;11.84;85.75;101564.69;4988729;28;20054;-63
2021/10/01 05:23:07;;;;;;;5.65;1.77;;;;;;;11.81;85.34;101575.44;4976676;28;20069;-64
2021/10/01 05:25:34;;;;;;;7.63;1.95;;;;;;;11.84;85.90;101574.38;4983130;28;20145;-64
2021/10/01 05:28:01;;;;;;;9.32;1.70;;;;;;;11.90;86.05;101573.00;4980105;28;20053;-63
2021/10/01 05:30:27;;;;;;;6.32;1.65;;;;;;;11.88;85.78;101576.59;4989680;28;20058;-64
2021/10/01 05:32:54;;;;;;;6.72;2.20;;;;;;;11.89;84.48;101566.91;4982819;28;20061;-63
2021/10/01 05:35:20;;;;;;;9.85;2.10;;;;;;;11.90;85.02;101562.47;4987150;28;20506;-64
2021/10/01 05:37:47;;;;;;;6.47;1.75;;;;;;;11.93;85.84;101568.31;4981290;28;20053;-64
2021/10/01 05:40:13;;;;;;;6.93;2.50;;;;;;;11.96;85.52;101561.97;4978003;28;20067;-64
2021/10/01 05:42:39;;;;;;;6.65;1.67;;;;;;;11.95;85.26;101563.75;4988513;28;20058;-64
2021/10/01 05:45:07;;;;;;;6.45;1.73;;;;;;;11.98;84.37;101560.84;4977141;28;20046;-64
2021/10/01 05:47:35;;;;;;;6.95;1.52;;;;;;;11.95;83.63;101561.09;4988719;28;20046;-64
2021/10/01 05:50:03;;;;;;;5.53;1.13;;;;;;;12.07;83.64;101561.81;4978368;28;20768;-63
2021/10/01 05:55:00;;;;;;;9.40;1.60;;;;;;;12.06;82.28;101558.34;4991516;28;20486;-64
2021/10/01 05:57:26;;;;;;;3.30;1.40;;;;;;;12.10;83.86;101560.72;4984685;28;20051;-64
2021/10/01 05:59:53;;;;;;;8.25;1.35;;;;;;;12.13;82.71;101568.31;4988995;28;20057;-64
2021/10/01 06:02:21;;;;;;;5.82;1.38;;;;;;;12.17;82.84;101574.97;4985736;28;20050;-64
2021/10/01 06:04:52;;;;;;;8.15;1.50;;;;;;;12.19;82.86;101578.28;4990062;28;20157;-64
2021/10/01 06:07:19;;;;;;;12.88;1.95;;;;;;;12.19;82.15;101578.28;4976138;28;20785;-64
2021/10/01 06:09:46;;;;;;;8.43;1.30;;;;;;;12.17;82.48;101578.44;4987921;28;20046;-63
2021/10/01 06:12:14;;;;;;;6.95;1.55;;;;;;;12.22;82.04;101578.03;4990030;28;20136;-64
2021/10/01 06:14:41;;;;;;;7.68;1.58;;;;;;;12.23;82.79;101566.50;4978245;28;20054;-64
2021/10/01 06:17:08;;;;;;;10.02;1.40;;;;;;;12.22;81.87;101570.94;4987740;28;20057;-64
2021/10/01 06:19:37;;;;;;;7.95;1.20;;;;;;;12.22;82.73;101563.06;4975569;28;20054;-64
2021/10/01 06:22:05;;;;;;;9.32;1.60;;;;;;;12.29;83.32;101565.97;4983868;28;20054;-64
2021/10/01 06:24:32;;;;;;;2.75;1.05;;;;;;;12.35;81.81;101556.66;4983905;28;20396;-63
2021/10/01 06:26:59;;;;;;;4.70;1.40;;;;;;;12.39;81.81;101561.53;4988393;28;20053;-64
2021/10/01 06:29:26;;;;;;;6.05;1.40;;;;;;;12.37;81.54;101566.09;4986685;28;20050;-64
2021/10/01 06:31:52;;;;;;;7.25;1.63;;;;;;;12.38;81.23;101564.31;4977850;28;20631;-64
2021/10/01 06:34:19;;;;;;;6.18;1.67;;;;;;;12.38;81.83;101572.19;4981269;28;20554;-64
2021/10/01 06:36:45;;;;;;;4.05;1.50;;;;;;;12.36;80.82;101574.97;4981625;28;20057;-63
2021/10/01 06:39:12;;;;;;;8.68;1.23;;;;;;;12.40;82.19;101572.88;4983318;28;20046;-64
2021/10/01 06:41:41;;;;;;;7.38;1.83;;;;;;;12.39;82.00;101579.13;4989546;28;20045;-64
2021/10/01 06:44:10;;;;;;;6.40;1.55;;;;;;;12.41;82.67;101571.94;4977748;28;20061;-64
2021/10/01 06:46:48;;;;;;;4.57;1.33;;;;;;;12.46;81.75;101577.59;4985689;28;20061;-64
2021/10/01 07:39:06;;;;;;;11.18;1.98;;;;;;;13.02;79.57;101550.44;4983079;28;20046;-64
2021/10/01 08:20:42;;;;;;;6.72;1.60;;;;;;;13.75;77.91;101547.03;4984631;28;20502;-64
2021/10/01 08:23:10;;;;;;;8.05;1.33;;;;;;;13.75;78.42;101554.94;4981626;28;20054;-63
2021/10/01 08:25:36;;;;;;;5.40;1.75;;;;;;;13.78;78.60;101549.38;4980398;28;20427;-63
2021/10/01 08:28:03;;;;;;;8.55;1.60;;;;;;;13.86;78.59;101561.81;5000792;28;20053;-63
2021/10/01 08:30:30;;;;;;;7.75;1.40;;;;;;;13.86;79.28;101553.91;4984600;28;20495;-62
2021/10/01 08:32:57;;;;;;;7.68;1.55;;;;;;;13.89;78.85;101555.41;4986950;28;20046;-63
2021/10/01 08:35:24;;;;;;;7.78;1.70;;;;;;;13.98;79.70;101557.13;4992461;28;20072;-64
2021/10/01 08:37:52;;;;;;;11.63;1.70;;;;;;;13.96;79.53;101559.91;4973619;28;20464;-63
2021/10/01 08:40:20;;;;;;;6.82;1.45;;;;;;;13.94;80.51;101553.16;4984308;28;20050;-63
2021/10/01 08:42:49;;;;;;;4.57;1.20;;;;;;;13.91;86.77;101556.91;4987717;28;20054;-62
2021/10/01 08:45:17;;;;;;;11.30;2.00;;;;;;;13.78;88.82;101548.53;4991825;28;20058;-63
2021/10/01 08:47:44;;;;;;;8.43;1.75;;;;;;;13.74;89.59;101547.16;4988866;28;20065;-63
2021/10/01 08:50:15;;;;;;;7.28;2.15;;;;;;;13.73;90.43;101535.78;4989801;28;20058;-62
2021/10/01 08:52:43;;;;;;;10.00;1.92;;;;;;;13.80;90.58;101530.78;4982108;28;20057;-63
2021/10/01 08:55:10;;;;;;;7.27;2.10;;;;;;;13.74;89.70;101531.34;4981094;28;20161;-61
2021/10/01 08:57:38;;;;;;;8.45;1.88;;;;;;;13.74;87.72;101534.84;4992138;28;20165;-62
2021/10/01 09:00:15;;;;;;;7.30;1.73;;;;;;;13.86;89.07;101532.81;4982002;28;20042;-62
2021/10/01 09:02:42;;;;;;;5.25;1.77;;;;;;;13.96;89.83;101523.00;4985794;28;20462;-62
2021/10/01 09:05:09;;;;;;;5.90;1.52;;;;;;;14.02;88.79;101526.84;4978616;28;20086;-63
2021/10/01 09:07:36;;;;;;;5.15;1.70;;;;;;;14.11;89.56;101522.44;4990540;28;20533;-63
2021/10/01 09:10:11;;;;;;;7.22;1.60;;;;;;;14.14;85.90;101519.53;4988094;28;20051;-61
2021/10/01 09:12:38;;;;;;;5.88;1.55;;;;;;;14.20;84.53;101514.44;4984685;28;20137;-63
2021/10/01 09:15:06;;;;;;;8.27;1.90;;;;;;;14.34;87.70;101513.06;4987641;28;20046;-62
2021/10/01 09:17:33;;;;;;;7.88;2.00;;;;;;;14.42;85.09;101507.00;4983719;28;20799;-63
2021/10/01 09:20:01;;;;;;;10.98;1.85;;;;;;;14.47;84.20;101503.94;4985741;28;20173;-61
2021/10/01 09:22:33;;;;;;;6.60;1.95;;;;;;;14.52;85.04;101505.09;4976053;28;20129;-62
2021/10/01 09:25:24;;;;;;;6.03;1.85;;;;;;;14.44;86.70;101503.25;4988860;28;20074;-60
2021/10/01 09:27:59;;;;;;;10.75;2.30;;;;;;;14.36;89.38;101507.63;4991258;28;20444;-63
2021/10/01 09:30:26;;;;;;;12.00;2.17;;;;;;;14.24;88.86;101513.16;4988935;28;20065;-61
2021/10/01 09:33:11;;;;;;;11.55;2.08;;;;;;;14.19;91.21;101506.69;4982436;28;20061;-61
2021/10/01 09:35:41;;;;;;;8.32;2.13;;;;;;;14.09;94.89;101504.13;4982426;28;20142;-62
2021/10/01 09:38:14;;;;;;;6.90;2.00;;;;;;;14.07;93.18;101498.19;4985461;28;20050;-62
2021/10/01 09:40:42;;;;;;;9.20;1.92;;;;;;;14.10;93.15;101502.34;4982974;28;20529;-62
2021/10/01 09:43:27;;;;;;;10.45;1.92;;;;;;;14.09;93.75;101500.66;4982394;28;20094;-61
2021/10/01 09:46:09;;;;;;;11.07;2.45;;;;;;;14.10;92.91;101505.81;4980314;28;20050;-62
2021/10/01 09:48:38;;;;;;;7.43;2.00;;;;;;;14.13;96.63;101497.59;4979191;28;20054;-63
2021/10/01 09:51:10;;;;;;;6.68;2.28;;;;;;;14.17;94.63;101506.84;4980659;28;20054;-62
2021/10/01 09:53:45;;;;;;;11.85;2.40;;;;;;;14.23;94.48;101498.31;4984477;28;20053;-61
2021/10/01 09:56:26;;;;;;;9.18;2.33;;;;;;;14.37;94.22;101493.47;4979584;28;20177;-63
2021/10/01 09:59:16;;;;;;;5.25;1.70;;;;;;;14.42;92.75;101494.63;4986729;28;20497;-61
2021/10/01 10:02:10;;;;;;;6.45;1.95;;;;;;;14.57;96.14;101494.13;4979374;28;20058;-61
2021/10/01 10:04:42;;;;;;;6.20;2.08;;;;;;;14.58;92.78;101491.31;4979998;28;20079;-62
2021/10/01 10:07:25;;;;;;;16.00;3.35;;;;;;;14.67;92.85;101494.81;4983398;28;20064;-61
2021/10/01 10:09:57;;;;;;;5.82;2.17;;;;;;;14.82;91.49;101480.06;4982953;28;20406;-62
2021/10/01 10:12:26;;;;;;;13.25;2.17;;;;;;;14.91;88.57;101478.25;4984629;28;20547;-62
2021/10/01 10:14:54;;;;;;;6.70;1.80;;;;;;;15.12;88.65;101474.41;4975848;28;20757;-62
2021/10/01 10:17:26;;;;;;;8.55;2.15;;;;;;;15.27;89.81;101464.00;4978316;28;20050;-62
2021/10/01 10:20:00;;;;;;;6.10;1.40;;;;;;;15.34;83.69;101459.75;4982778;28;20054;-62
2021/10/01 10:22:30;;;;;;;8.82;1.90;;;;;;;15.40;84.89;101457.25;4987889;28;20046;-62
2021/10/01 10:24:59;;;;;;;10.25;2.10;;;;;;;15.46;82.36;101458.44;4982300;28;20417;-62
2021/10/01 10:27:27;;;;;;;5.75;1.42;;;;;;;15.42;81.48;101457.94;4984646;28;20050;-62
2021/10/01 10:29:54;;;;;;;;;;;;;;;15.45;80.90;101453.34;4985559;28;20400;-62
2021/10/01 10:32:24;;;;;;;5.22;1.52;;;;;;;15.66;81.71;101442.25;4976290;28;19948;-62
2021/10/01 10:34:54;;;;;;;10.35;1.80;;;;;;;15.81;81.75;101451.22;4986977;28;20426;-62
2021/10/01 10:37:53;;;;;;;9.30;1.88;;;;;;;15.67;76.05;101450.03;4976734;28;20058;-61
2021/10/01 10:40:20;;;;;;;5.18;1.80;;;;;;;15.81;77.67;101445.94;4979025;28;20050;-60
2021/10/01 10:43:00;;;;;;;9.25;1.40;;;;;;;15.87;78.21;101444.44;4978879;28;20046;-62
2021/10/01 10:45:27;;;;;;;8.77;1.90;;;;;;;15.93;77.21;101444.59;4987529;28;20050;-62
2021/10/01 10:48:04;;;;;;;4.57;1.67;;;;;;;15.93;75.91;101444.59;4981457;28;20050;-62
2021/10/01 10:50:35;;;;;;;8.75;1.55;;;;;;;16.00;76.71;101445.59;4986995;28;20735;-62
2021/10/01 10:53:09;;;;;;;9.05;1.90;;;;;;;16.01;77.37;101439.31;4989167;28;20062;-62
2021/10/01 10:55:54;;;;;;;9.10;1.65;;;;;;;16.08;77.38;101441.31;4976605;28;20372;-62
2021/10/01 10:58:21;;;;;;;6.20;1.58;;;;;;;16.05;74.75;101441.63;4986833;28;20058;-63
2021/10/01 11:00:52;;;;;;;7.82;1.60;;;;;;;16.17;75.67;101429.69;4993204;28;20493;-63
2021/10/01 11:03:19;;;;;;;10.68;1.70;;;;;;;16.37;80.25;101438.09;4985604;28;20540;-62
2021/10/01 11:06:07;;;;;;;6.15;1.40;;;;;;;16.48;73.93;101437.72;4980027;28;20060;-62
2021/10/01 11:08:35;;;;;;;7.63;1.85;;;;;;;16.48;73.90;101427.13;4981600;28;20049;-61
2021/10/01 11:11:02;;;;;;;7.57;1.75;;;;;;;16.52;75.31;101428.44;4979262;28;20049;-62
2021/10/01 11:13:33;;;;;;;5.90;1.67;;;;;;;16.59;75.09;101424.13;4986144;28;20088;-62
2021/10/01 11:16:08;;;;;;;6.95;1.95;;;;;;;16.59;73.22;101428.59;4990559;28;20498;-61
2021/10/01 11:18:47;;;;;;;10.00;1.77;;;;;;;16.49;74.13;101428.78;4983969;28;20053;-62
2021/10/01 11:24:21;;;;;;;7.55;1.60;;;;;;;16.50;74.79;101416.38;4977379;28;20054;-62
2021/10/01 11:26:59;;;;;;;6.00;1.70;;;;;;;16.50;74.45;101417.19;4991006;28;20061;-63
2021/10/01 11:29:31;;;;;;;16.35;1.85;;;;;;;16.54;74.14;101413.22;4985062;28;20410;-61
2021/10/01 11:32:17;;;;;;;6.38;1.40;;;;;;;16.66;73.71;101412.84;4990925;28;20054;-63
2021/10/01 11:34:44;;;;;;;8.93;1.88;;;;;;;16.94;73.41;101397.34;4982008;28;20085;-61
2021/10/01 11:37:20;;;;;;;7.93;1.85;;;;;;;16.94;71.21;101398.16;4991515;28;20057;-61
2021/10/01 11:39:46;;;;;;;9.02;2.40;;;;;;;16.91;71.31;101395.03;4984401;28;20492;-62
2021/10/01 11:42:29;;;;;;;20.85;2.60;;;;;;;16.88;70.03;101398.88;4992338;28;20060;-63
2021/10/01 11:45:04;;;;;;;10.40;1.60;;;;;;;16.86;73.30;101389.44;4981707;28;20408;-62
2021/10/01 11:47:31;;;;;;;5.35;1.52;;;;;;;16.84;75.79;101386.97;4988532;28;20276;-62
2021/10/01 11:49:59;;;;;;;10.63;1.75;;;;;;;16.74;73.66;101381.00;4985022;28;20483;-63
2021/10/01 11:52:27;;;;;;;8.30;1.40;;;;;;;16.75;74.40;101391.44;4983469;28;20050;-62
2021/10/01 11:54:57;;;;;;;7.47;1.42;;;;;;;16.70;77.12;101391.16;4993474;28;20065;-61
2021/10/01 11:57:37;;;;;;;6.32;1.55;;;;;;;16.70;79.99;101387.66;4985989;28;20050;-62
2021/10/01 12:00:07;;;;;;;4.88;1.45;;;;;;;16.73;80.13;101385.47;4994708;28;20042;-62
2021/10/01 12:02:45;;;;;;;9.30;1.73;;;;;;;16.47;77.46;101385.78;4981586;28;20072;-62
2021/10/01 12:05:30;;;;;;;6.75;1.40;;;;;;;16.41;78.58;101371.41;4989768;28;20133;-63
2021/10/01 12:07:59;;;;;;;8.27;1.77;;;;;;;16.30;81.28;101363.00;4983591;28;20054;-63
2021/10/01 12:10:28;;;;;;;8.68;1.70;;;;;;;16.24;83.15;101353.91;4988627;28;20057;-63
2021/10/01 12:13:01;;;;;;;9.80;1.75;;;;;;;16.21;84.38;101364.88;4984739;28;20076;-63
2021/10/01 12:15:36;;;;;;;8.63;1.73;;;;;;;16.20;82.46;101363.19;4980951;28;20124;-63
2021/10/01 12:18:05;;;;;;;6.43;2.10;;;;;;;16.27;85.95;101355.38;4990551;28;20050;-63
2021/10/01 12:20:48;;;;;;;6.50;1.50;;;;;;;16.32;83.81;101353.06;4983976;28;20057;-61
2021/10/01 12:23:27;;;;;;;10.43;1.60;;;;;;;16.33;81.33;101357.38;4998700;28;20061;-62
2021/10/01 12:25:54;;;;;;;10.38;1.75;;;;;;;16.39;81.74;101362.78;4979625;28;20049;-61
2021/10/01 12:28:22;;;;;;;9.00;1.58;;;;;;;16.49;84.04;101359.94;4984225;28;20058;-63
2021/10/01 12:31:03;;;;;;;7.00;1.40;;;;;;;16.54;80.03;101356.78;4981587;28;20046;-61
2021/10/01 12:33:30;;;;;;;6.60;1.60;;;;;;;16.63;81.05;101355.75;4987329;28;20459;-62
2021/10/01 12:35:57;;;;;;;10.65;1.65;;;;;;;16.70;79.33;101351.41;4997987;28;20057;-62
2021/10/01 12:38:24;;;;;;;7.25;1.63;;;;;;;16.77;79.70;101347.06;4982824;28;21519;-63
2021/10/01 12:41:16;;;;;;;4.60;1.20;;;;;;;16.86;80.20;101333.81;4987043;28;20050;-60
2021/10/01 12:43:53;;;;;;;18.40;2.20;;;;;;;16.99;75.44;101336.69;4977221;28;20517;-62
2021/10/01 12:46:38;;;;;;;13.27;2.38;;;;;;;17.08;75.58;101332.16;4984687;28;20054;-61
2021/10/01 12:49:12;;;;;;;10.45;2.15;;;;;;;17.02;72.81;101339.00;4984994;28;20050;-62
2021/10/01 12:51:39;;;;;;;10.60;2.05;;;;;;;17.03;70.96;101337.97;4988874;28;20057;-61
2021/10/01 12:54:29;;;;;;;8.93;1.70;;;;;;;16.92;74.96;101338.41;4980293;28;21258;-61
2021/10/01 12:57:14;;;;;;;8.95;1.65;;;;;;;16.84;72.73;101326.03;4983674;28;20396;-62
2021/10/01 13:00:01;;;;;;;5.82;1.30;;;;;;;16.76;72.92;101334.81;4982213;28;20058;-61
2021/10/01 13:02:39;;;;;;;8.43;1.58;;;;;;;16.82;73.94;101328.03;4991774;28;20075;-62
2021/10/01 13:05:07;;;;;;;4.57;1.42;;;;;;;16.84;73.44;101331.31;4986609;28;20108;-62
2021/10/01 13:07:40;;;;;;;8.50;1.63;;;;;;;16.89;72.10;101338.75;4982826;28;20046;-61
2021/10/01 13:10:15;;;;;;;7.40;1.42;;;;;;;16.86;70.19;101334.63;4982609;28;20049;-62
2021/10/01 13:13:27;;;;;;;7.70;1.45;;;;;;;17.05;72.84;101332.50;4988193;28;21007;-62
2021/10/01 13:15:56;;;;;;;6.70;1.48;;;;;;;17.17;73.09;101334.59;4968034;28;20104;-61
2021/10/01 13:18:32;;;;;;;9.98;2.65;;;;;;;17.21;73.90;101337.72;4982792;28;20088;-62
2021/10/01 13:21:01;;;;;;;5.65;1.77;;;;;;;17.25;72.42;101336.34;4982511;28;20042;-61
2021/10/01 13:23:28;;;;;;;5.22;1.65;;;;;;;17.24;72.76;101333.88;4978633;28;20050;-62
2021/10/01 13:25:57;;;;;;;5.40;1.45;;;;;;;17.28;71.63;101332.50;4987562;28;20068;-62
2021/10/01 13:28:26;;;;;;;8.10;1.50;;;;;;;17.36;72.69;101335.09;4979446;28;20054;-62